Herndon, Kansas
Current Conditions -  °F | °C
As of 9:53 AM on Monday 26 Jan 2015 (Local Time) from KMCK Reporting Station
Clear Clear  
Wind Chill: 50°   Ceiling: Unl
Heat Index: 50°   Visibility: 10mi
Dew Point: 33°   Wind: 12mph
Humidity: 52%   Direction: 300°WNW
Pressure: 30.1"   Gusts: NA
Location:  39.91°N, 100.79°W
Report Text: KMCK 261553Z AUTO 30010KT 10SM CLR 10/01 A3010 RMK AO2 SLP200 T01000006
Loading
Personal Weather Stations






























Interactive Weather Map New forecast layout! Learn more

10-Day Weather Forecast

Advertisements
Track Severe Weather on mobile